Time;durP1;ratioP1;P1;durP2;ratioP2;P2;SDS_P1;SDS_P2;PMS_P1;PMS_P2;Temp;Humidity;BMP_temperature;BMP_pressure;BME280_temperature;BME280_humidity;BME280_pressure;Samples;Min_cycle;Max_cycle;Signal;HPM_P1;HPM_P2
2022/12/02 00:01:14;;;;;;;35.20;16.47;;;;;;;2.30;90.35;101148.38;4989915;28;20227;-71
2022/12/02 00:03:41;;;;;;;38.03;17.03;;;;;;;2.35;90.37;101141.69;4985001;28;20200;-70
2022/12/02 00:06:14;;;;;;;37.63;15.17;;;;;;;2.36;90.42;101141.78;4987160;28;20299;-70
2022/12/02 00:08:40;;;;;;;43.37;17.47;;;;;;;2.31;90.86;101132.78;4982320;28;20224;-70
2022/12/02 00:11:26;;;;;;;34.80;15.80;;;;;;;2.24;90.75;101142.78;4981127;28;20319;-72
2022/12/02 00:13:53;;;;;;;32.93;14.23;;;;;;;2.12;91.13;101138.66;5004826;28;20219;-71
2022/12/02 00:16:22;;;;;;;37.83;16.97;;;;;;;2.04;91.36;101141.63;4986802;28;20636;-70
2022/12/02 00:18:50;;;;;;;33.93;15.13;;;;;;;1.93;91.58;101140.06;4988731;28;20199;-70
2022/12/02 00:21:16;;;;;;;37.60;15.60;;;;;;;1.83;92.00;101129.06;4985048;28;20702;-72
2022/12/02 00:23:43;;;;;;;36.80;16.97;;;;;;;1.80;92.37;101126.28;4987643;28;20205;-71
2022/12/02 00:26:09;;;;;;;39.00;16.07;;;;;;;1.79;92.60;101103.59;4983461;28;20297;-70
2022/12/02 00:28:36;;;;;;;39.27;17.63;;;;;;;1.83;92.50;101123.84;4982411;28;20225;-71
2022/12/02 00:31:03;;;;;;;36.67;16.60;;;;;;;1.76;92.43;101132.13;4987715;28;20222;-70
2022/12/02 00:33:29;;;;;;;35.70;16.63;;;;;;;1.57;92.30;101110.94;4988650;28;20284;-69
2022/12/02 00:35:56;;;;;;;39.67;16.40;;;;;;;1.52;92.78;101117.56;4988825;28;20654;-71
2022/12/02 00:38:22;;;;;;;38.67;16.13;;;;;;;1.46;92.96;101115.50;4989468;28;20251;-74
2022/12/02 00:40:48;;;;;;;32.53;15.00;;;;;;;1.47;93.41;101112.09;4988645;28;20225;-71
2022/12/02 00:48:45;;;;;;;37.73;15.57;;;;;;;1.78;94.07;101111.34;4990799;28;20272;-71
2022/12/02 00:51:11;;;;;;;38.70;16.77;;;;;;;1.84;94.10;101111.69;4992827;28;20225;-70
2022/12/02 00:53:37;;;;;;;38.43;16.20;;;;;;;1.94;93.95;101111.41;4991761;28;20203;-70
2022/12/02 00:56:04;;;;;;;37.70;16.57;;;;;;;2.03;93.71;101103.25;4993137;28;20877;-69
2022/12/02 00:58:30;;;;;;;37.30;16.63;;;;;;;2.14;93.48;101099.53;4992569;28;20412;-70
2022/12/02 01:00:57;;;;;;;37.13;16.80;;;;;;;2.26;93.20;101101.97;4991278;28;20271;-72
2022/12/02 01:03:23;;;;;;;35.67;15.93;;;;;;;2.27;93.23;101099.44;4990826;28;20203;-71
2022/12/02 01:05:49;;;;;;;41.83;17.30;;;;;;;2.22;93.02;101090.44;4992873;28;20299;-71
2022/12/02 01:08:16;;;;;;;35.43;15.63;;;;;;;2.08;92.54;101073.97;4992824;28;20203;-70
2022/12/02 01:10:42;;;;;;;34.60;15.73;;;;;;;2.10;92.38;101092.34;4991030;28;20258;-70
2022/12/02 01:13:08;;;;;;;41.83;17.77;;;;;;;1.95;92.63;101080.97;4991726;28;20710;-70
2022/12/02 01:15:35;;;;;;;34.53;15.20;;;;;;;1.87;92.72;101084.03;4990511;28;20205;-70
2022/12/02 01:18:01;;;;;;;38.30;16.87;;;;;;;1.92;93.46;101086.94;4982993;28;20721;-73
2022/12/02 01:20:27;;;;;;;37.37;15.50;;;;;;;1.99;93.93;101089.09;4982500;28;20198;-72
2022/12/02 01:22:54;;;;;;;36.83;15.47;;;;;;;2.04;93.97;101085.06;4991112;28;20277;-71
2022/12/02 01:25:20;;;;;;;37.97;16.00;;;;;;;2.13;93.78;101090.81;4990560;28;20721;-71
2022/12/02 01:27:46;;;;;;;31.43;15.20;;;;;;;2.21;93.89;101088.63;4990973;28;20635;-70
2022/12/02 01:30:13;;;;;;;41.40;17.23;;;;;;;2.29;93.81;101089.06;4991636;28;20253;-70
2022/12/02 01:32:39;;;;;;;36.20;17.27;;;;;;;2.41;93.60;101087.19;4992006;28;20313;-72
2022/12/02 01:35:06;;;;;;;37.10;15.80;;;;;;;2.48;93.52;101092.84;4992783;28;20209;-73
2022/12/02 01:37:33;;;;;;;37.23;18.00;;;;;;;2.56;93.10;101100.22;4984430;28;20228;-68
2022/12/02 01:39:59;;;;;;;34.53;16.37;;;;;;;2.60;93.19;101096.94;4991736;28;20624;-70
2022/12/02 01:42:25;;;;;;;39.70;17.07;;;;;;;2.70;92.73;101091.41;4991984;28;20224;-70
2022/12/02 01:44:52;;;;;;;34.83;16.27;;;;;;;2.73;92.70;101088.97;4999430;28;20228;-70
2022/12/02 01:47:19;;;;;;;38.23;15.60;;;;;;;2.82;92.63;101094.72;4989807;28;20203;-70
2022/12/02 01:49:45;;;;;;;36.37;16.80;;;;;;;2.88;92.19;101095.06;4991751;28;20574;-70
2022/12/02 01:52:12;;;;;;;35.37;15.87;;;;;;;2.92;91.63;101091.81;4991228;28;20228;-70
2022/12/02 01:54:38;;;;;;;34.43;16.07;;;;;;;2.96;91.78;101101.63;4991376;28;20239;-71
2022/12/02 01:57:11;;;;;;;35.93;16.27;;;;;;;3.00;91.17;101089.59;4982718;28;20227;-70
2022/12/02 01:59:39;;;;;;;37.10;17.10;;;;;;;3.06;90.93;101100.41;4990728;28;20239;-71
2022/12/02 02:02:27;;;;;;;34.77;16.53;;;;;;;3.09;90.91;101088.38;4990979;28;20317;-72
2022/12/02 02:04:59;;;;;;;36.50;17.30;;;;;;;3.01;90.28;101076.59;4989488;28;20302;-73
2022/12/02 02:07:27;;;;;;;35.63;15.83;;;;;;;3.11;90.45;101097.22;4989241;28;20255;-71
2022/12/02 02:09:54;;;;;;;32.63;15.43;;;;;;;3.08;90.19;101086.56;4990776;28;20213;-71
2022/12/02 02:12:21;;;;;;;31.30;15.23;;;;;;;3.21;89.67;101102.97;4990446;28;20323;-70
2022/12/02 02:14:48;;;;;;;33.10;16.00;;;;;;;3.29;88.43;101088.56;4988363;28;20695;-69
2022/12/02 02:17:15;;;;;;;32.10;15.63;;;;;;;3.22;88.75;101083.84;4991169;28;20197;-70
2022/12/02 02:19:43;;;;;;;35.73;16.57;;;;;;;3.10;88.70;101073.56;4987421;28;20248;-71
2022/12/02 02:22:37;;;;;;;37.53;16.60;;;;;;;3.22;88.70;101089.06;4990417;28;20244;-71
2022/12/02 02:25:09;;;;;;;35.67;14.83;;;;;;;3.26;88.48;101091.03;4981350;28;20230;-70
2022/12/02 02:27:35;;;;;;;32.70;15.63;;;;;;;3.26;88.69;101086.69;4990246;28;20234;-68
2022/12/02 02:30:03;;;;;;;35.50;14.73;;;;;;;3.23;89.00;101075.16;4989187;28;20272;-71
2022/12/02 02:32:29;;;;;;;37.30;15.33;;;;;;;3.28;88.96;101081.53;4991184;28;20275;-70
2022/12/02 02:34:56;;;;;;;37.90;15.70;;;;;;;3.31;88.93;101092.16;4991028;28;20306;-73
2022/12/02 02:37:23;;;;;;;34.00;14.87;;;;;;;3.35;88.86;101091.50;4990800;28;20720;-70
2022/12/02 02:39:50;;;;;;;33.57;15.50;;;;;;;3.36;89.04;101085.47;4988452;28;20239;-72
2022/12/02 02:42:17;;;;;;;34.30;14.60;;;;;;;3.41;88.89;101078.75;4990435;28;20701;-71
2022/12/02 02:44:44;;;;;;;35.40;16.30;;;;;;;3.32;88.78;101058.22;4990995;28;20231;-72
2022/12/02 02:47:10;;;;;;;33.93;14.90;;;;;;;3.43;88.75;101069.25;4990334;28;20199;-71
2022/12/02 02:49:36;;;;;;;35.00;15.90;;;;;;;3.47;88.26;101073.81;4988139;28;20252;-69
2022/12/02 02:52:03;;;;;;;37.97;15.37;;;;;;;3.45;88.18;101068.50;4990658;28;20268;-71
2022/12/02 02:54:29;;;;;;;33.00;14.63;;;;;;;3.41;87.86;101057.78;4991226;28;20197;-70
2022/12/02 02:56:56;;;;;;;34.27;14.67;;;;;;;3.53;87.62;101066.28;4983467;28;20204;-71
2022/12/02 02:59:22;;;;;;;36.13;15.47;;;;;;;3.70;86.81;101060.22;4989822;28;20259;-70
2022/12/02 03:01:50;;;;;;;36.33;16.40;;;;;;;3.63;86.44;101062.44;4990472;28;20694;-70
2022/12/02 03:04:19;;;;;;;31.83;15.37;;;;;;;3.57;86.33;101059.47;4987856;28;20201;-70
2022/12/02 03:06:47;;;;;;;37.43;15.27;;;;;;;3.56;86.19;101062.94;4989286;28;20731;-70
2022/12/02 03:09:16;;;;;;;32.03;14.20;;;;;;;3.53;86.24;101062.78;4990807;28;20236;-71
2022/12/02 03:11:46;;;;;;;34.47;14.30;;;;;;;3.51;86.58;101061.78;4980278;28;20225;-72
2022/12/02 03:14:13;;;;;;;28.97;14.23;;;;;;;3.50;86.79;101050.41;4955696;28;20289;-71
2022/12/02 03:16:42;;;;;;;32.97;15.20;;;;;;;3.48;86.68;101052.06;4974044;28;20210;-71
2022/12/02 03:19:10;;;;;;;31.63;14.97;;;;;;;3.67;86.36;101054.81;4982643;28;20280;-72
2022/12/02 03:21:37;;;;;;;34.47;16.03;;;;;;;3.70;85.76;101034.03;4972586;28;20280;-71
2022/12/02 03:24:04;;;;;;;34.07;16.50;;;;;;;3.64;85.75;101041.56;4980961;28;20736;-71
2022/12/02 03:26:32;;;;;;;31.60;15.03;;;;;;;3.64;86.07;101035.44;4984495;28;20232;-71
2022/12/02 03:29:00;;;;;;;35.03;15.27;;;;;;;3.63;86.18;101038.88;4974098;28;20285;-71
2022/12/02 03:31:27;;;;;;;31.87;14.93;;;;;;;3.59;86.54;101045.66;4965837;28;20238;-71
2022/12/02 03:33:54;;;;;;;32.10;14.80;;;;;;;3.50;86.54;101033.81;4982131;28;20211;-71
2022/12/02 03:36:21;;;;;;;35.80;16.70;;;;;;;3.48;86.51;101031.09;4973439;28;20236;-71
2022/12/02 03:38:49;;;;;;;33.63;15.50;;;;;;;3.54;86.75;101043.63;4972862;28;20205;-69
2022/12/02 03:41:15;;;;;;;35.13;16.57;;;;;;;3.50;86.95;101034.72;4985492;28;20786;-70
2022/12/02 03:43:42;;;;;;;40.83;17.30;;;;;;;3.49;86.58;101032.00;4972948;28;20244;-70
2022/12/02 03:46:08;;;;;;;37.43;16.07;;;;;;;3.52;86.55;101043.53;4977908;28;20216;-71
2022/12/02 03:48:37;;;;;;;38.23;15.87;;;;;;;3.52;86.62;101038.31;4977376;28;20197;-73
2022/12/02 03:51:03;;;;;;;35.03;15.13;;;;;;;3.62;85.83;101029.22;4971429;28;20221;-71
2022/12/02 03:53:30;;;;;;;34.87;15.50;;;;;;;3.67;85.50;101032.97;4977762;28;20240;-71
2022/12/02 03:55:57;;;;;;;36.43;16.47;;;;;;;3.77;85.05;101030.00;4971877;28;20205;-71
2022/12/02 03:58:53;;;;;;;33.40;15.73;;;;;;;3.80;84.25;101018.78;4955826;28;20229;-69
2022/12/02 04:01:21;;;;;;;36.37;16.23;;;;;;;3.85;83.70;101012.94;4958398;28;20258;-71
2022/12/02 04:03:47;;;;;;;33.43;14.93;;;;;;;3.77;84.18;101001.19;4976529;28;20569;-71
2022/12/02 04:06:13;;;;;;;31.27;15.33;;;;;;;3.94;83.18;101005.53;4973939;28;20434;-70
2022/12/02 04:08:40;;;;;;;36.20;15.60;;;;;;;3.93;83.06;101000.22;4969851;28;20602;-73
2022/12/02 04:11:06;;;;;;;36.67;15.23;;;;;;;3.91;83.28;101012.34;4954276;28;20584;-73
2022/12/02 04:13:33;;;;;;;35.07;15.47;;;;;;;3.84;83.65;101010.25;4974023;28;20260;-71
2022/12/02 04:15:59;;;;;;;34.67;15.67;;;;;;;3.75;83.95;101001.09;4974947;28;20205;-71
2022/12/02 04:18:26;;;;;;;37.30;15.20;;;;;;;3.89;83.82;100996.53;4970177;28;20610;-69
2022/12/02 04:20:52;;;;;;;36.30;15.23;;;;;;;3.94;83.64;100995.03;4981623;28;20300;-71
2022/12/02 04:23:18;;;;;;;34.23;15.23;;;;;;;3.91;83.46;100987.03;4973165;28;20265;-71
2022/12/02 04:25:45;;;;;;;34.03;15.10;;;;;;;3.88;84.06;100986.88;4974807;28;20236;-72
2022/12/02 04:28:11;;;;;;;38.70;15.67;;;;;;;3.78;83.84;100985.53;4968482;28;20292;-71
2022/12/02 04:30:37;;;;;;;35.80;15.30;;;;;;;3.80;83.65;100979.47;4965784;28;20257;-71
2022/12/02 04:33:04;;;;;;;38.40;16.63;;;;;;;3.70;83.79;100976.41;4973763;28;20737;-71
2022/12/02 04:35:30;;;;;;;36.57;15.67;;;;;;;3.68;84.26;100980.66;4974390;28;20205;-71
2022/12/02 04:37:57;;;;;;;37.30;16.37;;;;;;;3.57;84.33;100965.22;4974357;28;20221;-71
2022/12/02 04:40:23;;;;;;;32.53;15.60;;;;;;;3.77;83.79;100982.84;4972390;28;20618;-71
2022/12/02 04:42:50;;;;;;;36.17;16.40;;;;;;;3.75;83.11;100971.38;4982607;28;20220;-71
2022/12/02 04:45:16;;;;;;;35.40;15.57;;;;;;;3.78;82.92;100982.03;4989823;28;20200;-71
2022/12/02 04:47:42;;;;;;;38.00;14.90;;;;;;;3.71;83.61;100980.81;4982488;28;20230;-71
2022/12/02 04:50:10;;;;;;;34.93;15.10;;;;;;;3.67;83.56;100975.34;4967353;28;20222;-71
2022/12/02 04:52:36;;;;;;;30.63;15.00;;;;;;;3.62;83.86;100971.63;4973647;28;20312;-70
2022/12/02 04:55:03;;;;;;;39.77;16.47;;;;;;;3.61;84.30;100972.44;4980662;28;20255;-69
2022/12/02 04:57:29;;;;;;;35.70;16.03;;;;;;;3.61;84.45;100969.81;4969464;28;20201;-68
2022/12/02 04:59:57;;;;;;;39.67;15.53;;;;;;;3.60;84.12;100963.69;4972075;28;20197;-69
2022/12/02 05:02:24;;;;;;;35.97;15.13;;;;;;;3.69;83.82;100966.75;4974796;28;20308;-69
2022/12/02 05:04:50;;;;;;;33.47;15.03;;;;;;;3.68;83.73;100962.34;4972350;28;20224;-71
2022/12/02 05:07:16;;;;;;;36.23;15.23;;;;;;;3.62;83.85;100953.28;4986513;28;20650;-69
2022/12/02 05:09:43;;;;;;;34.73;15.00;;;;;;;3.59;83.89;100955.72;4973170;28;20744;-71
2022/12/02 05:12:09;;;;;;;33.50;15.13;;;;;;;3.68;83.50;100966.69;4998934;23;20224;-63
2022/12/02 05:14:35;;;;;;;34.30;14.50;;;;;;;3.59;83.35;100959.22;4989610;28;20738;-62
2022/12/02 05:17:02;;;;;;;40.53;16.27;;;;;;;3.63;83.33;100958.59;4982388;28;20206;-63
2022/12/02 05:19:28;;;;;;;36.77;16.10;;;;;;;3.65;83.40;100966.53;4983928;28;20284;-62
2022/12/02 05:21:55;;;;;;;34.67;15.40;;;;;;;3.62;83.46;100961.13;4976360;28;20216;-63
2022/12/02 05:24:21;;;;;;;34.07;14.73;;;;;;;3.64;83.52;100972.59;4980304;28;20620;-63
2022/12/02 05:26:47;;;;;;;36.97;16.07;;;;;;;3.69;82.89;100955.38;4977083;28;20293;-63
2022/12/02 05:29:14;;;;;;;37.67;15.00;;;;;;;3.66;83.22;100955.22;4985085;28;20263;-63
2022/12/02 05:31:40;;;;;;;34.60;15.63;;;;;;;3.74;82.88;100960.00;4984714;28;20310;-65
2022/12/02 05:34:06;;;;;;;39.23;15.87;;;;;;;3.76;82.87;100965.34;4979223;28;20197;-65
2022/12/02 05:36:33;;;;;;;35.77;16.33;;;;;;;3.67;82.70;100959.63;4988827;28;20424;-66
2022/12/02 05:38:59;;;;;;;38.90;15.60;;;;;;;3.67;82.85;100957.03;4991633;28;20736;-66
2022/12/02 05:41:25;;;;;;;44.40;16.97;;;;;;;3.72;82.29;100950.28;4985771;28;20304;-65
2022/12/02 05:43:52;;;;;;;37.67;15.17;;;;;;;3.82;81.27;100955.16;4985372;28;20280;-65
2022/12/02 05:46:20;;;;;;;35.37;15.43;;;;;;;3.78;81.01;100948.88;4991234;28;20238;-65
2022/12/02 05:48:48;;;;;;;37.70;14.67;;;;;;;3.75;81.56;100953.06;4984393;28;20654;-62
2022/12/02 05:51:20;;;;;;;36.80;15.97;;;;;;;3.73;82.02;100957.31;4979430;28;20303;-63
2022/12/02 05:53:49;;;;;;;35.40;14.60;;;;;;;3.76;82.18;100957.47;4980278;28;20192;-62
2022/12/02 05:56:23;;;;;;;35.03;14.27;;;;;;;3.79;81.63;100955.00;4985664;28;20232;-65
2022/12/02 05:58:50;;;;;;;34.10;14.27;;;;;;;3.74;81.91;100956.50;4982896;28;20288;-62
2022/12/02 06:01:25;;;;;;;34.70;14.80;;;;;;;3.81;81.51;100957.69;4985889;28;20216;-63
2022/12/02 06:03:51;;;;;;;34.30;14.67;;;;;;;3.78;81.25;100948.88;4990323;28;20239;-63
2022/12/02 06:06:23;;;;;;;34.87;14.53;;;;;;;3.81;81.92;100965.56;4990965;28;20826;-62
2022/12/02 06:08:49;;;;;;;34.50;15.33;;;;;;;3.82;81.61;100967.34;4982573;28;20202;-63
2022/12/02 06:11:27;;;;;;;33.47;15.60;;;;;;;3.85;81.36;100962.25;4989351;28;20232;-62
2022/12/02 06:14:00;;;;;;;32.67;14.53;;;;;;;3.72;81.93;100961.66;4990639;28;20204;-63
2022/12/02 06:16:29;;;;;;;38.77;14.73;;;;;;;3.83;81.94;100966.53;4984923;28;20645;-62
2022/12/02 06:18:58;;;;;;;37.30;15.07;;;;;;;3.81;81.78;100966.44;4982254;28;20746;-62
2022/12/02 06:21:26;;;;;;;32.43;14.80;;;;;;;3.85;82.03;100970.13;4986857;28;20296;-65
2022/12/02 06:23:56;;;;;;;33.83;14.37;;;;;;;3.88;81.31;100962.41;4989432;28;20785;-65
2022/12/02 06:26:23;;;;;;;32.63;13.47;;;;;;;3.82;81.67;100964.72;4983632;28;20259;-65
2022/12/02 06:28:55;;;;;;;30.57;14.30;;;;;;;3.88;81.12;100955.44;4991224;28;20200;-65
2022/12/02 06:31:30;;;;;;;33.40;14.60;;;;;;;4.02;80.01;100961.38;4988088;28;20228;-62
2022/12/02 06:33:59;;;;;;;32.23;13.50;;;;;;;3.95;80.41;100969.75;4987831;28;20199;-66
2022/12/02 06:36:32;;;;;;;34.13;14.77;;;;;;;3.91;80.79;100954.69;4991018;28;20620;-66
2022/12/02 06:39:00;;;;;;;29.20;13.70;;;;;;;3.86;81.55;100957.09;4974482;28;20276;-66
2022/12/02 06:41:30;;;;;;;35.07;14.87;;;;;;;3.85;82.08;100962.25;4988763;28;20701;-65
2022/12/02 06:46:44;;;;;;;31.73;14.07;;;;;;;3.87;81.65;100960.59;4984832;28;20289;-63
2022/12/02 06:49:24;;;;;;;33.10;14.80;;;;;;;3.86;82.20;100967.56;4978495;28;20209;-65
2022/12/02 06:52:00;;;;;;;35.53;14.67;;;;;;;3.96;81.33;100963.69;4985101;28;20228;-64
2022/12/02 06:54:31;;;;;;;36.33;14.77;;;;;;;3.91;81.86;100958.22;4990774;28;20220;-65
2022/12/02 06:57:00;;;;;;;30.40;14.27;;;;;;;3.86;82.59;100954.47;4988299;28;20205;-65
2022/12/02 06:59:27;;;;;;;31.97;14.77;;;;;;;3.93;82.54;100964.44;4982493;28;20201;-63
2022/12/02 07:01:59;;;;;;;33.33;15.50;;;;;;;3.90;82.87;100960.75;4986567;28;20252;-63
2022/12/02 07:04:54;;;;;;;46.00;25.00;;;;;;;3.94;83.45;100965.31;4983817;28;20213;-63
2022/12/02 07:07:29;;;;;;;38.10;17.10;;;;;;;3.97;82.85;100966.38;4976992;28;20263;-63
2022/12/02 07:10:20;;;;;;;40.27;15.57;;;;;;;3.90;83.10;100959.03;4965286;28;20200;-63
2022/12/02 07:12:47;;;;;;;35.57;15.87;;;;;;;3.85;83.65;100959.63;4990401;28;20323;-63
2022/12/02 07:15:31;;;;;;;34.57;14.93;;;;;;;3.83;83.70;100964.81;4989783;28;20197;-63
2022/12/02 07:18:18;;;;;;;33.20;15.50;;;;;;;3.80;84.16;100963.75;4979688;28;20457;-63
2022/12/02 07:20:46;;;;;;;34.40;15.40;;;;;;;3.81;84.68;100952.44;4976202;28;20197;-62
2022/12/02 07:23:23;;;;;;;36.87;17.47;;;;;;;3.79;85.24;100962.84;4984064;28;20287;-63
2022/12/02 07:25:55;;;;;;;38.07;15.80;;;;;;;3.83;85.47;100956.03;4990288;28;20243;-63
2022/12/02 07:28:33;;;;;;;40.60;15.27;;;;;;;3.83;85.07;100951.72;4982517;28;20284;-62
2022/12/02 07:31:16;;;;;;;38.07;15.30;;;;;;;3.81;85.17;100952.44;4985356;28;20286;-63
2022/12/02 07:33:42;;;;;;;36.83;15.80;;;;;;;3.88;84.37;100950.19;4976399;28;20197;-62
2022/12/02 07:36:09;;;;;;;35.10;15.47;;;;;;;3.84;84.21;100940.41;4989788;28;20197;-62
2022/12/02 07:38:35;;;;;;;31.60;15.50;;;;;;;3.87;84.18;100950.13;4988429;28;20649;-62
2022/12/02 07:41:21;;;;;;;34.27;15.80;;;;;;;3.95;84.46;100954.03;4977089;28;20681;-63
2022/12/02 07:43:48;;;;;;;31.20;15.53;;;;;;;3.96;84.16;100951.47;4979653;28;20620;-62
2022/12/02 07:46:14;;;;;;;36.13;16.07;;;;;;;3.97;84.12;100953.28;4980299;28;20271;-63
2022/12/02 07:48:41;;;;;;;35.50;15.70;;;;;;;3.96;83.86;100941.00;4985839;28;20204;-63
2022/12/02 07:51:07;;;;;;;39.60;16.30;;;;;;;4.03;84.04;100953.59;4980852;28;20218;-63
2022/12/02 07:53:33;;;;;;;37.47;15.03;;;;;;;4.04;83.77;100951.88;4968784;28;20656;-63
2022/12/02 07:56:00;;;;;;;33.47;15.00;;;;;;;3.96;83.61;100950.56;4987905;28;20530;-63
2022/12/02 07:58:26;;;;;;;33.00;15.07;;;;;;;3.90;83.86;100953.78;4987727;28;22869;-63
2022/12/02 08:01:12;;;;;;;34.70;15.67;;;;;;;3.91;84.00;100949.44;4990518;28;20224;-63
2022/12/02 08:03:45;;;;;;;30.80;13.33;;;;;;;3.95;83.72;100946.16;4994030;28;20302;-62
2022/12/02 08:06:11;;;;;;;29.40;13.73;;;;;;;3.99;84.31;100942.84;4976428;28;20633;-63
2022/12/02 08:08:37;;;;;;;34.47;14.47;;;;;;;3.98;83.88;100947.19;4996112;28;20254;-62
2022/12/02 08:11:04;;;;;;;34.07;14.63;;;;;;;3.96;83.61;100941.00;4995022;28;20382;-63
2022/12/02 08:13:30;;;;;;;31.03;13.63;;;;;;;3.97;84.36;100950.66;4994749;28;20200;-62
2022/12/02 08:15:57;;;;;;;35.63;13.90;;;;;;;4.02;83.87;100953.53;4992926;28;20200;-61
2022/12/02 08:18:23;;;;;;;31.33;13.90;;;;;;;4.05;82.79;100945.81;4995300;28;20324;-62
2022/12/02 08:20:49;;;;;;;33.87;14.07;;;;;;;4.06;83.39;100950.22;4992700;28;20203;-65
2022/12/02 08:23:16;;;;;;;34.47;13.73;;;;;;;3.94;83.83;100949.59;4995469;28;20318;-65
2022/12/02 08:25:42;;;;;;;31.73;13.57;;;;;;;3.91;84.02;100949.44;4993892;28;20221;-63
2022/12/02 08:28:08;;;;;;;34.83;13.77;;;;;;;3.88;84.59;100949.31;4993769;28;20607;-62
2022/12/02 08:30:35;;;;;;;31.00;14.13;;;;;;;3.86;85.61;100958.81;4994539;28;20204;-62
2022/12/02 08:33:01;;;;;;;35.07;15.33;;;;;;;3.86;86.38;100953.56;4972544;28;20213;-62
2022/12/02 08:35:27;;;;;;;26.60;13.00;;;;;;;3.84;86.22;100960.47;4995931;28;20200;-62
2022/12/02 08:37:54;;;;;;;27.40;12.47;;;;;;;3.94;84.81;100950.50;4994746;28;20696;-62
2022/12/02 08:40:20;;;;;;;25.67;12.13;;;;;;;3.86;84.41;100959.72;4993201;28;20752;-62
2022/12/02 08:42:46;;;;;;;21.27;11.23;;;;;;;3.81;82.39;100957.69;4995135;28;20270;-62
2022/12/02 08:45:13;;;;;;;25.77;10.77;;;;;;;3.62;83.53;100954.19;4993634;28;20978;-63
2022/12/02 08:47:39;;;;;;;21.53;10.70;;;;;;;3.63;83.68;100952.47;4992061;28;20201;-63
2022/12/02 08:50:09;;;;;;;23.60;10.23;;;;;;;3.58;83.95;100956.53;4993419;28;20223;-62
2022/12/02 08:52:35;;;;;;;23.03;9.63;;;;;;;3.55;84.26;100952.03;4994560;28;20251;-62
2022/12/02 08:55:02;;;;;;;21.33;9.80;;;;;;;3.54;84.24;100958.09;4994462;28;20366;-63
2022/12/02 08:57:29;;;;;;;19.00;9.70;;;;;;;3.44;84.54;100954.13;4993669;28;20620;-63
2022/12/02 08:59:55;;;;;;;21.57;10.80;;;;;;;3.48;84.74;100957.81;4994186;28;20223;-62
2022/12/02 09:02:21;;;;;;;21.93;9.80;;;;;;;3.44;83.01;100961.97;4994673;28;20367;-62
2022/12/02 09:04:48;;;;;;;19.20;9.43;;;;;;;3.45;83.45;100965.50;4994488;28;20206;-64
2022/12/02 09:07:15;;;;;;;19.40;9.20;;;;;;;3.38;83.43;100966.00;4991791;28;20304;-64
2022/12/02 09:09:42;;;;;;;21.73;9.53;;;;;;;3.31;82.71;100959.56;4991382;28;20245;-64
2022/12/02 09:12:08;;;;;;;20.13;9.47;;;;;;;3.41;83.13;100961.84;4991001;28;20228;-63
2022/12/02 09:14:35;;;;;;;18.13;9.53;;;;;;;3.40;83.12;100964.38;4991725;28;20200;-64
2022/12/02 09:17:01;;;;;;;21.10;10.00;;;;;;;3.36;84.11;100958.09;4989093;28;20837;-64
2022/12/02 09:19:27;;;;;;;18.43;9.93;;;;;;;3.32;84.57;100957.84;4991648;28;20676;-64
2022/12/02 09:21:54;;;;;;;22.40;12.00;;;;;;;3.34;84.43;100948.34;4973636;28;20302;-64
2022/12/02 09:24:20;;;;;;;18.17;9.73;;;;;;;3.38;84.24;100964.28;4989430;28;20208;-63
2022/12/02 09:26:46;;;;;;;20.93;9.13;;;;;;;3.42;82.90;100957.50;4990993;28;20199;-63
2022/12/02 09:29:13;;;;;;;17.77;9.27;;;;;;;3.31;83.79;100959.56;4990678;28;20251;-63
2022/12/02 09:31:39;;;;;;;18.07;9.40;;;;;;;3.31;83.63;100954.34;4988136;28;20314;-64
2022/12/02 09:34:06;;;;;;;17.97;9.07;;;;;;;3.30;84.03;100955.16;4988841;28;20210;-63
2022/12/02 09:36:32;;;;;;;19.13;9.73;;;;;;;3.36;83.25;100958.09;4991753;28;20698;-63
2022/12/02 09:38:59;;;;;;;17.90;8.90;;;;;;;3.35;83.05;100952.78;4991758;28;20207;-64
2022/12/02 09:41:26;;;;;;;18.50;8.53;;;;;;;3.31;82.67;100954.34;4984042;28;20215;-64
2022/12/02 09:43:53;;;;;;;14.33;7.73;;;;;;;3.29;82.79;100953.38;4988303;28;20200;-63
2022/12/02 09:46:19;;;;;;;13.10;7.63;;;;;;;3.26;83.13;100947.97;4991103;28;20286;-64
2022/12/02 09:48:50;;;;;;;14.23;7.80;;;;;;;3.31;82.94;100956.06;4986160;28;20674;-65
2022/12/02 09:51:17;;;;;;;13.17;6.83;;;;;;;3.28;83.58;100951.56;4989640;28;20250;-64
2022/12/02 09:53:45;;;;;;;15.13;7.57;;;;;;;3.19;83.29;100950.16;4988313;28;20779;-64
2022/12/02 09:56:14;;;;;;;13.90;7.57;;;;;;;3.19;83.30;100956.28;4988363;28;20246;-64
2022/12/02 09:58:42;;;;;;;13.23;6.97;;;;;;;3.17;83.63;100954.41;4990707;28;20203;-64
2022/12/02 10:01:10;;;;;;;14.37;6.77;;;;;;;3.10;84.11;100947.97;4989150;28;20461;-63
2022/12/02 10:03:38;;;;;;;14.70;7.50;;;;;;;3.13;83.20;100942.91;4984031;28;20257;-63
2022/12/02 10:06:17;;;;;;;12.43;7.23;;;;;;;3.04;83.92;100932.84;4985587;28;20223;-64
2022/12/02 10:08:43;;;;;;;12.13;6.00;;;;;;;3.18;83.28;100948.38;4981475;28;20292;-64
2022/12/02 10:11:20;;;;;;;13.67;6.50;;;;;;;3.08;83.47;100950.50;4984761;28;20209;-63
2022/12/02 10:13:46;;;;;;;13.13;6.53;;;;;;;3.07;83.52;100946.09;4983116;28;20386;-64
2022/12/02 10:16:13;;;;;;;14.97;6.17;;;;;;;3.09;83.63;100940.94;4984051;28;20197;-63
2022/12/02 10:18:40;;;;;;;13.70;6.87;;;;;;;3.17;83.07;100946.56;4980862;28;20285;-64
2022/12/02 10:21:07;;;;;;;12.47;6.47;;;;;;;3.19;82.89;100944.94;4982748;28;20286;-64
2022/12/02 10:23:52;;;;;;;17.60;6.63;;;;;;;3.21;82.96;100946.84;4980936;28;20278;-64
2022/12/02 10:26:19;;;;;;;12.83;6.70;;;;;;;3.26;82.88;100942.72;4981792;28;20229;-64
2022/12/02 10:29:07;;;;;;;12.77;6.87;;;;;;;3.36;83.56;100929.28;4981249;28;20204;-64
2022/12/02 10:31:33;;;;;;;10.93;6.43;;;;;;;3.40;83.28;100914.63;4983312;28;20656;-64
2022/12/02 10:34:06;;;;;;;11.87;6.33;;;;;;;3.54;83.30;100926.69;4982089;28;20718;-64
2022/12/02 10:36:35;;;;;;;12.17;5.97;;;;;;;3.57;82.26;100923.31;4967008;28;20201;-64
2022/12/02 10:39:20;;;;;;;11.40;6.60;;;;;;;3.59;81.28;100924.28;4982371;28;20285;-64
2022/12/02 10:42:06;;;;;;;12.37;6.20;;;;;;;3.54;81.27;100925.78;4981847;28;20241;-64
2022/12/02 10:44:36;;;;;;;11.03;6.20;;;;;;;3.58;81.40;100925.09;4982975;28;20210;-65
2022/12/02 10:47:09;;;;;;;12.40;6.50;;;;;;;3.72;82.19;100919.75;4982667;28;20383;-64
2022/12/02 10:49:36;;;;;;;11.97;6.33;;;;;;;3.76;80.92;100915.56;4963981;28;20239;-64
2022/12/02 10:52:09;;;;;;;12.17;6.37;;;;;;;3.75;80.67;100901.56;4982189;28;20225;-65
2022/12/02 10:54:38;;;;;;;11.10;5.73;;;;;;;3.80;80.34;100904.41;4981925;28;20284;-64
2022/12/02 10:57:27;;;;;;;10.47;5.80;;;;;;;3.84;79.22;100906.34;4983332;28;20255;-65
2022/12/02 10:59:55;;;;;;;11.53;6.43;;;;;;;3.92;79.55;100902.38;4978291;28;20657;-64
2022/12/02 11:02:55;;;;;;;11.90;5.93;;;;;;;3.88;77.65;100904.78;4985108;28;20306;-64
2022/12/02 11:05:26;;;;;;;8.93;5.30;;;;;;;3.87;78.33;100901.25;4962665;28;20239;-65
2022/12/02 11:07:55;;;;;;;9.47;5.30;;;;;;;3.86;78.78;100899.47;4978467;28;20270;-64
2022/12/02 11:10:25;;;;;;;9.20;5.33;;;;;;;3.91;78.69;100899.66;4982886;28;20239;-64
2022/12/02 11:12:51;;;;;;;9.73;5.23;;;;;;;3.90;79.97;100897.88;4981013;28;20314;-66
2022/12/02 11:15:37;;;;;;;10.90;6.27;;;;;;;3.91;79.67;100891.81;4982536;28;20300;-66
2022/12/02 11:18:06;;;;;;;9.93;5.53;;;;;;;3.92;78.71;100886.66;4982008;28;20356;-66
2022/12/02 11:20:43;;;;;;;11.20;5.30;;;;;;;3.88;79.47;100895.19;4981561;28;20196;-66
2022/12/02 11:23:17;;;;;;;9.60;5.43;;;;;;;3.78;77.94;100891.22;4981735;28;20277;-66
2022/12/02 11:25:46;;;;;;;9.90;5.20;;;;;;;3.78;79.53;100886.00;4982871;28;20209;-66
2022/12/02 11:28:19;;;;;;;9.40;5.20;;;;;;;3.80;79.09;100888.69;4983577;28;20646;-66
2022/12/02 11:30:46;;;;;;;8.97;4.77;;;;;;;3.77;79.28;100880.69;4981691;28;20658;-66
2022/12/02 11:34:00;;;;;;;8.60;4.80;;;;;;;3.78;78.78;100874.63;4980953;28;20227;-66
2022/12/02 11:36:33;;;;;;;9.93;5.07;;;;;;;3.71;79.51;100873.44;4980621;28;20203;-66